createdAt,value
2023-04-02T00:00:58.630Z,0.00
2023-04-02T00:01:58.543Z,0.00
2023-04-02T00:02:58.567Z,0.00
2023-04-02T00:03:58.517Z,0.00
2023-04-02T00:04:58.377Z,0.00
2023-04-02T00:05:58.291Z,0.00
2023-04-02T00:06:58.258Z,0.00
2023-04-02T00:07:58.144Z,0.00
2023-04-02T00:08:58.116Z,0.00
2023-04-02T00:09:58.064Z,0.00
2023-04-02T00:10:57.971Z,0.00
2023-04-02T00:11:57.935Z,0.00
2023-04-02T00:12:57.852Z,0.00
2023-04-02T00:13:57.754Z,0.00
2023-04-02T00:14:57.778Z,0.00
2023-04-02T00:15:57.815Z,0.00
2023-04-02T00:16:57.636Z,0.00
2023-04-02T00:17:57.597Z,0.00
2023-04-02T00:18:57.466Z,0.00
2023-04-02T00:19:57.402Z,0.00
2023-04-02T00:20:57.338Z,0.00
2023-04-02T00:21:57.247Z,0.00
2023-04-02T00:22:57.210Z,0.00
2023-04-02T00:23:57.147Z,0.00
2023-04-02T00:24:57.099Z,0.00
2023-04-02T00:25:57.021Z,0.00
2023-04-02T00:26:56.950Z,0.00
2023-04-02T00:27:56.874Z,0.00
2023-04-02T00:28:56.814Z,0.00
2023-04-02T00:29:56.740Z,0.00
2023-04-02T00:30:56.685Z,0.00
2023-04-02T00:31:56.655Z,0.00
2023-04-02T00:32:56.653Z,0.00
2023-04-02T00:33:56.514Z,0.00
2023-04-02T00:34:56.447Z,0.00
2023-04-02T00:35:56.443Z,0.00
2023-04-02T00:36:56.334Z,0.00
2023-04-02T00:37:56.303Z,0.00
2023-04-02T00:39:00.226Z,0.00
2023-04-02T00:39:56.107Z,0.00
2023-04-02T00:40:56.088Z,0.00
2023-04-02T00:41:56.094Z,0.00
2023-04-02T00:42:55.948Z,0.00
2023-04-02T00:43:55.913Z,0.00
2023-04-02T00:44:55.850Z,0.00
2023-04-02T00:45:55.874Z,0.00
2023-04-02T00:46:55.716Z,0.00
2023-04-02T00:47:55.641Z,0.00
2023-04-02T00:48:55.593Z,0.00
2023-04-02T00:49:55.532Z,0.00
2023-04-02T00:50:55.452Z,0.00
2023-04-02T00:51:55.375Z,0.00
2023-04-02T00:52:55.309Z,0.00
2023-04-02T00:53:55.283Z,0.00
2023-04-02T00:54:55.187Z,0.00
2023-04-02T00:55:55.156Z,0.00
2023-04-02T00:56:55.397Z,0.00
2023-04-02T00:57:55.000Z,0.00
2023-04-02T00:58:54.961Z,0.00
2023-04-02T00:59:54.998Z,0.00
2023-04-02T01:00:54.815Z,0.00
2023-04-02T01:01:54.725Z,0.00
2023-04-02T01:02:54.795Z,0.00
2023-04-02T01:03:54.637Z,0.00
2023-04-02T01:04:54.551Z,0.00
2023-04-02T01:05:54.498Z,0.00
2023-04-02T01:06:54.431Z,0.00
2023-04-02T01:07:54.406Z,0.00
2023-04-02T01:08:54.352Z,0.00
2023-04-02T01:09:54.270Z,0.00
2023-04-02T01:10:54.167Z,0.00
2023-04-02T01:11:54.121Z,0.00
2023-04-02T01:12:54.045Z,0.00
2023-04-02T01:13:53.989Z,0.00
2023-04-02T01:14:53.957Z,0.00
2023-04-02T01:15:53.955Z,0.00
2023-04-02T01:16:53.763Z,0.00
2023-04-02T01:17:53.727Z,0.00
2023-04-02T01:18:53.668Z,0.00
2023-04-02T01:19:53.580Z,0.00
2023-04-02T01:20:53.602Z,0.00
2023-04-02T01:21:53.519Z,0.00
2023-04-02T01:22:53.439Z,0.00
2023-04-02T01:23:53.352Z,0.00
2023-04-02T01:24:53.265Z,0.00
2023-04-02T01:25:53.202Z,0.00
2023-04-02T01:26:53.193Z,0.00
2023-04-02T01:27:53.098Z,0.00
2023-04-02T01:28:53.072Z,0.00
2023-04-02T01:29:53.004Z,0.00
2023-04-02T01:30:52.912Z,0.00
2023-04-02T01:31:52.860Z,0.00
2023-04-02T01:35:11.258Z,0.00
2023-04-02T01:36:12.223Z,0.00
2023-04-02T01:37:12.104Z,0.00
2023-04-02T01:38:12.069Z,0.00
2023-04-02T01:39:11.969Z,0.00
2023-04-02T01:40:11.917Z,0.00
2023-04-02T01:41:11.836Z,0.00
2023-04-02T01:42:11.801Z,0.00
2023-04-02T01:43:11.713Z,0.00
2023-04-02T01:44:11.622Z,0.00
2023-04-02T01:45:11.586Z,0.00
2023-04-02T01:46:11.540Z,0.00
2023-04-02T01:47:11.435Z,0.00
2023-04-02T01:48:11.443Z,0.00
2023-04-02T01:49:11.301Z,0.00
2023-04-02T01:50:11.265Z,0.00
2023-04-02T01:51:11.202Z,0.00
2023-04-02T01:54:30.578Z,0.00
2023-04-02T01:55:31.559Z,0.00
2023-04-02T01:56:31.457Z,0.00
2023-04-02T01:57:31.418Z,0.00
2023-04-02T01:58:31.333Z,0.00
2023-04-02T01:59:31.287Z,0.00
2023-04-02T02:00:31.272Z,0.00
2023-04-02T02:01:31.120Z,0.00
2023-04-02T02:02:31.213Z,0.00
2023-04-02T02:03:30.991Z,0.00
2023-04-02T02:04:30.979Z,0.00
2023-04-02T02:05:30.927Z,0.00
2023-04-02T02:06:30.827Z,0.00
2023-04-02T02:07:30.764Z,0.00
2023-04-02T02:08:30.702Z,0.00
2023-04-02T02:09:30.628Z,0.00
2023-04-02T02:10:30.639Z,0.00
2023-04-02T02:11:34.564Z,0.00
2023-04-02T02:12:30.447Z,0.00
2023-04-02T02:13:30.437Z,0.00
2023-04-02T02:14:30.343Z,0.00
2023-04-02T02:15:30.265Z,0.00
2023-04-02T02:16:30.297Z,0.00
2023-04-02T02:17:30.164Z,0.00
2023-04-02T02:18:30.047Z,0.00
2023-04-02T02:19:30.015Z,0.00
2023-04-02T02:20:29.953Z,0.00
2023-04-02T02:21:29.858Z,0.00
2023-04-02T02:22:29.885Z,0.00
2023-04-02T02:23:29.816Z,0.00
2023-04-02T02:24:29.727Z,0.00
2023-04-02T02:25:29.643Z,0.00
2023-04-02T02:26:29.576Z,0.00
2023-04-02T02:27:29.501Z,0.00
2023-04-02T02:28:29.466Z,0.00
2023-04-02T02:31:47.907Z,0.00
2023-04-02T02:32:48.798Z,0.00
2023-04-02T02:33:48.661Z,0.00
2023-04-02T02:34:48.661Z,0.00
2023-04-02T02:35:48.596Z,0.00
2023-04-02T02:36:48.489Z,0.00
2023-04-02T02:37:48.459Z,0.00
2023-04-02T02:38:48.385Z,0.00
2023-04-02T02:39:49.312Z,0.00
2023-04-02T02:40:48.236Z,0.00
2023-04-02T02:41:48.214Z,0.00
2023-04-02T02:42:48.190Z,0.00
2023-04-02T02:43:48.060Z,0.00
2023-04-02T02:44:48.012Z,0.00
2023-04-02T02:45:47.946Z,0.00
2023-04-02T02:46:47.896Z,0.00
2023-04-02T02:47:47.822Z,0.00
2023-04-02T02:53:24.595Z,0.00
2023-04-02T02:54:25.547Z,0.00
2023-04-02T02:55:25.477Z,0.00
2023-04-02T02:56:25.416Z,0.00
2023-04-02T02:57:25.390Z,0.00
2023-04-02T02:58:25.327Z,0.00
2023-04-02T02:59:25.257Z,0.00
2023-04-02T03:00:25.165Z,0.00
2023-04-02T03:01:25.106Z,0.00
2023-04-02T03:02:25.117Z,0.00
2023-04-02T03:03:25.116Z,0.00
2023-04-02T03:04:25.245Z,0.00
2023-04-02T03:05:24.874Z,0.00
2023-04-02T03:06:24.778Z,0.00
2023-04-02T03:07:24.697Z,0.00
2023-04-02T03:08:24.642Z,0.00
2023-04-02T03:09:24.569Z,0.00
2023-04-02T03:12:42.955Z,0.00
2023-04-02T03:13:43.906Z,0.00
2023-04-02T03:14:43.835Z,0.00
2023-04-02T03:15:43.846Z,0.00
2023-04-02T03:16:43.746Z,0.00
2023-04-02T03:17:43.736Z,0.00
2023-04-02T03:18:43.620Z,0.00
2023-04-02T03:19:43.530Z,0.00
2023-04-02T03:20:43.462Z,0.00
2023-04-02T03:21:43.425Z,0.00
2023-04-02T03:22:43.339Z,0.00
2023-04-02T03:23:43.282Z,0.00
2023-04-02T03:24:43.186Z,0.00
2023-04-02T03:25:43.154Z,0.00
2023-04-02T03:26:43.120Z,0.00
2023-04-02T03:27:43.010Z,0.00
2023-04-02T03:28:42.976Z,0.00
2023-04-02T03:29:43.040Z,0.00
2023-04-02T03:30:42.841Z,0.00
2023-04-02T03:31:42.913Z,0.00
2023-04-02T03:32:42.685Z,0.00
2023-04-02T03:33:42.689Z,0.00
2023-04-02T03:34:42.614Z,0.00
2023-04-02T03:35:42.583Z,0.00
2023-04-02T03:36:42.495Z,0.00
2023-04-02T03:37:42.417Z,0.00
2023-04-02T03:38:42.282Z,1.00
2023-04-02T03:39:42.245Z,0.00
2023-04-02T03:40:42.233Z,0.00
2023-04-02T03:41:42.153Z,0.00
2023-04-02T03:42:42.069Z,0.00
2023-04-02T03:43:42.032Z,0.00
2023-04-02T03:44:41.923Z,0.00
2023-04-02T03:45:41.915Z,0.00
2023-04-02T03:46:41.881Z,0.00
2023-04-02T03:47:41.851Z,0.00
2023-04-02T03:48:42.372Z,0.00
2023-04-02T03:49:41.640Z,0.00
2023-04-02T03:50:41.548Z,0.00
2023-04-02T03:51:41.487Z,0.00
2023-04-02T03:52:41.445Z,0.00
2023-04-02T03:53:41.408Z,0.00
2023-04-02T03:54:41.315Z,0.00
2023-04-02T03:55:41.269Z,0.00
2023-04-02T03:56:41.156Z,0.00
2023-04-02T03:57:41.145Z,0.00
2023-04-02T03:58:41.088Z,0.00
2023-04-02T03:59:41.036Z,0.00
2023-04-02T04:00:40.954Z,0.00
2023-04-02T04:01:40.934Z,0.00
2023-04-02T04:02:40.841Z,0.00
2023-04-02T04:03:40.816Z,0.00
2023-04-02T04:04:40.678Z,0.00
2023-04-02T04:05:40.903Z,0.00
2023-04-02T04:06:40.551Z,0.00
2023-04-02T04:07:40.495Z,0.00
2023-04-02T04:08:40.394Z,0.00
2023-04-02T04:09:40.330Z,0.00
2023-04-02T04:10:40.296Z,0.00
2023-04-02T04:11:40.227Z,0.00
2023-04-02T04:12:40.198Z,0.00
2023-04-02T04:13:40.129Z,0.00
2023-04-02T04:14:40.054Z,0.00
2023-04-02T04:15:39.964Z,0.00
2023-04-02T04:16:40.467Z,0.00
2023-04-02T04:17:39.898Z,0.00
2023-04-02T04:18:39.826Z,0.00
2023-04-02T04:19:39.730Z,0.00
2023-04-02T04:20:39.628Z,0.00
2023-04-02T04:21:39.606Z,0.00
2023-04-02T04:22:39.525Z,0.00
2023-04-02T04:23:39.466Z,0.00
2023-04-02T04:24:39.433Z,0.00
2023-04-02T04:25:39.337Z,0.00
2023-04-02T04:26:39.306Z,0.00
2023-04-02T04:27:39.219Z,0.00
2023-04-02T04:28:39.125Z,0.00
2023-04-02T04:29:39.109Z,0.00
2023-04-02T04:30:38.998Z,1.00
2023-04-02T04:31:39.116Z,0.00
2023-04-02T04:32:38.955Z,0.00
2023-04-02T04:33:38.856Z,0.00
2023-04-02T04:34:38.729Z,1.00
2023-04-02T04:35:39.089Z,1.00
2023-04-02T04:36:38.590Z,1.00
2023-04-02T04:37:38.584Z,1.00
2023-04-02T04:38:38.493Z,2.00
2023-04-02T04:39:38.377Z,2.00
2023-04-02T04:40:38.362Z,2.00
2023-04-02T04:41:38.346Z,0.00
2023-04-02T04:42:38.218Z,2.00
2023-04-02T04:43:38.155Z,2.00
2023-04-02T04:44:38.049Z,2.00
2023-04-02T04:45:38.079Z,3.00
2023-04-02T04:46:37.961Z,1.00
2023-04-02T04:47:37.966Z,2.00
2023-04-02T04:48:37.804Z,3.00
2023-04-02T04:49:37.772Z,4.00
2023-04-02T04:50:37.717Z,4.00
2023-04-02T04:51:37.638Z,5.00
2023-04-02T04:52:37.574Z,7.00
2023-04-02T04:53:37.515Z,7.00
2023-04-02T04:54:37.474Z,6.00
2023-04-02T04:55:37.764Z,6.00
2023-04-02T04:56:37.319Z,9.00
2023-04-02T04:57:37.222Z,10.00
2023-04-02T04:58:37.169Z,11.00
2023-04-02T04:59:37.116Z,11.00
2023-04-02T05:00:37.085Z,9.00
2023-04-02T05:01:37.083Z,9.00
2023-04-02T05:02:36.987Z,15.00
2023-04-02T05:03:36.869Z,18.00
2023-04-02T05:04:36.818Z,16.00
2023-04-02T05:05:37.063Z,19.00
2023-04-02T05:06:36.678Z,23.00
2023-04-02T05:07:36.692Z,25.00
2023-04-02T05:08:36.579Z,26.00
2023-04-02T05:09:36.491Z,24.00
2023-04-02T05:10:36.420Z,25.00
2023-04-02T05:13:48.510Z,35.00
2023-04-02T05:14:49.389Z,34.00
2023-04-02T05:15:49.406Z,39.00
2023-04-02T05:16:49.293Z,36.00
2023-04-02T05:17:49.292Z,37.00
2023-04-02T05:18:49.137Z,46.00
2023-04-02T05:19:49.150Z,44.00
2023-04-02T05:20:49.058Z,50.00
2023-04-02T05:21:48.967Z,51.00
2023-04-02T05:22:48.936Z,56.00
2023-04-02T05:23:48.867Z,54.00
2023-04-02T05:24:48.807Z,56.00
2023-04-02T05:25:48.744Z,49.00
2023-04-02T05:26:48.654Z,54.00
2023-04-02T05:27:48.619Z,53.00
2023-04-02T05:28:48.498Z,63.00
2023-04-02T05:29:48.508Z,58.00
2023-04-02T05:30:48.399Z,68.00
2023-04-02T05:31:48.418Z,73.00
2023-04-02T05:32:48.291Z,77.00
2023-04-02T05:33:48.205Z,77.00
2023-04-02T05:34:48.176Z,77.00
2023-04-02T05:35:52.132Z,78.00
2023-04-02T05:36:48.042Z,82.00
2023-04-02T05:37:47.959Z,76.00
2023-04-02T05:38:47.902Z,76.00
2023-04-02T05:39:47.829Z,74.00
2023-04-02T05:40:47.766Z,77.00
2023-04-02T05:41:47.752Z,85.00
2023-04-02T05:42:47.622Z,88.00
2023-04-02T05:43:47.575Z,88.00
2023-04-02T05:44:47.512Z,90.00
2023-04-02T05:45:47.450Z,91.00
2023-04-02T05:46:47.403Z,91.00
2023-04-02T05:47:47.450Z,93.00
2023-04-02T05:48:47.251Z,90.00
2023-04-02T05:49:47.168Z,92.00
2023-04-02T05:50:47.169Z,97.00
2023-04-02T05:51:47.072Z,98.00
2023-04-02T05:52:47.035Z,101.00
2023-04-02T05:53:49.403Z,94.00
2023-04-02T05:54:46.887Z,92.00
2023-04-02T05:55:46.842Z,91.00
2023-04-02T05:56:46.768Z,93.00
2023-04-02T05:58:01.130Z,97.00
2023-04-02T05:58:46.702Z,97.00
2023-04-02T05:59:46.610Z,102.00
2023-04-02T06:00:46.471Z,105.00
2023-04-02T06:01:46.492Z,108.00
2023-04-02T06:02:46.370Z,113.00
2023-04-02T06:03:46.396Z,122.00
2023-04-02T06:04:46.251Z,127.00
2023-04-02T06:05:46.197Z,130.00
2023-04-02T06:06:46.089Z,128.00
2023-04-02T06:07:46.053Z,152.00
2023-04-02T06:08:45.990Z,153.00
2023-04-02T06:09:45.929Z,164.00
2023-04-02T06:10:45.836Z,181.00
2023-04-02T06:14:04.164Z,221.00
2023-04-02T06:15:05.125Z,210.00
2023-04-02T06:16:05.057Z,221.00
2023-04-02T06:17:05.030Z,225.00
2023-04-02T06:18:04.950Z,241.00
2023-04-02T06:19:04.846Z,250.00
2023-04-02T06:20:04.801Z,263.00
2023-04-02T06:21:04.746Z,266.00
2023-04-02T06:22:04.671Z,281.00
2023-04-02T06:23:04.580Z,283.00
2023-04-02T06:24:04.555Z,300.00
2023-04-02T06:25:04.489Z,294.00
2023-04-02T06:26:04.360Z,286.00
2023-04-02T06:27:04.354Z,345.00
2023-04-02T06:28:04.309Z,391.00
2023-04-02T06:29:04.225Z,407.00
2023-04-02T06:30:04.173Z,391.00
2023-04-02T06:31:04.135Z,453.00
2023-04-02T06:32:04.044Z,496.00
2023-04-02T06:33:03.977Z,511.00
2023-04-02T06:34:03.878Z,490.00
2023-04-02T06:35:03.820Z,497.00
2023-04-02T06:36:03.813Z,470.00
2023-04-02T06:37:03.712Z,496.00
2023-04-02T06:38:03.649Z,528.00
2023-04-02T06:39:03.592Z,452.00
2023-04-02T06:40:03.496Z,460.00
2023-04-02T06:41:03.437Z,458.00
2023-04-02T06:42:03.386Z,562.00
2023-04-02T06:43:03.609Z,552.00
2023-04-02T06:44:03.246Z,462.00
2023-04-02T06:45:03.165Z,501.00
2023-04-02T06:46:03.148Z,575.00
2023-04-02T06:47:03.073Z,624.00
2023-04-02T06:48:03.024Z,627.00
2023-04-02T06:49:02.952Z,601.00
2023-04-02T06:50:02.840Z,528.00
2023-04-02T06:51:02.822Z,459.00
2023-04-02T06:52:02.763Z,464.00
2023-04-02T06:53:02.675Z,452.00
2023-04-02T06:54:02.635Z,422.00
2023-04-02T06:55:02.570Z,383.00
2023-04-02T06:56:02.517Z,406.00
2023-04-02T06:57:02.477Z,402.00
2023-04-02T06:58:02.342Z,373.00
2023-04-02T06:59:02.327Z,352.00
2023-04-02T07:00:02.218Z,299.00
2023-04-02T07:01:02.186Z,329.00
2023-04-02T07:02:02.071Z,318.00
2023-04-02T07:03:02.080Z,358.00
2023-04-02T07:04:01.965Z,342.00
2023-04-02T07:05:01.973Z,355.00
2023-04-02T07:06:01.809Z,370.00
2023-04-02T07:07:01.759Z,415.00
2023-04-02T07:08:01.712Z,408.00
2023-04-02T07:09:01.654Z,439.00
2023-04-02T07:10:01.554Z,465.00
2023-04-02T07:11:01.483Z,520.00
2023-04-02T07:12:01.422Z,537.00
2023-04-02T07:13:01.399Z,474.00
2023-04-02T07:14:01.329Z,472.00
2023-04-02T07:15:01.281Z,506.00
2023-04-02T07:16:01.253Z,431.00
2023-04-02T07:17:01.101Z,421.00
2023-04-02T07:18:01.097Z,437.00
2023-04-02T07:19:01.081Z,404.00
2023-04-02T07:20:00.940Z,387.00
2023-04-02T07:21:00.923Z,410.00
2023-04-02T07:22:00.838Z,462.00
2023-04-02T07:23:00.749Z,439.00
2023-04-02T07:24:00.688Z,442.00
2023-04-02T07:25:00.660Z,435.00
2023-04-02T07:26:00.553Z,426.00
2023-04-02T07:27:00.487Z,426.00
2023-04-02T07:28:00.421Z,465.00
2023-04-02T07:29:00.372Z,466.00
2023-04-02T07:30:00.299Z,491.00
2023-04-02T07:31:00.283Z,494.00
2023-04-02T07:32:00.168Z,500.00
2023-04-02T07:33:00.125Z,546.00
2023-04-02T07:34:00.223Z,528.00
2023-04-02T07:34:59.952Z,514.00
2023-04-02T07:35:59.973Z,483.00
2023-04-02T07:36:59.882Z,558.00
2023-04-02T07:37:59.778Z,598.00
2023-04-02T07:38:59.751Z,559.00
2023-04-02T07:39:59.654Z,595.00
2023-04-02T07:40:59.620Z,554.00
2023-04-02T07:41:59.541Z,528.00
2023-04-02T07:43:06.964Z,527.00
2023-04-02T07:43:59.435Z,536.00
2023-04-02T07:44:59.335Z,536.00
2023-04-02T07:45:59.301Z,568.00
2023-04-02T07:46:59.293Z,628.00
2023-04-02T07:47:59.212Z,577.00
2023-04-02T07:48:59.099Z,569.00
2023-04-02T07:49:59.006Z,639.00
2023-04-02T07:50:58.926Z,611.00
2023-04-02T07:51:58.877Z,679.00
2023-04-02T07:52:58.822Z,609.00
2023-04-02T07:53:58.758Z,707.00
2023-04-02T07:54:58.690Z,734.00
2023-04-02T07:55:58.637Z,748.00
2023-04-02T07:56:58.607Z,771.00
2023-04-02T07:57:58.481Z,824.00
2023-04-02T07:58:58.476Z,830.00
2023-04-02T07:59:58.401Z,779.00
2023-04-02T08:00:58.345Z,822.00
2023-04-02T08:01:58.286Z,831.00
2023-04-02T08:02:58.292Z,850.00
2023-04-02T08:03:58.161Z,891.00
2023-04-02T08:04:58.093Z,888.00
2023-04-02T08:05:58.021Z,896.00
2023-04-02T08:06:57.911Z,881.00
2023-04-02T08:07:57.855Z,762.00
2023-04-02T08:08:57.794Z,844.00
2023-04-02T08:09:57.734Z,815.00
2023-04-02T08:10:57.652Z,842.00
2023-04-02T08:11:57.649Z,742.00
2023-04-02T08:12:57.626Z,700.00
2023-04-02T08:13:57.513Z,878.00
2023-04-02T08:14:57.421Z,784.00
2023-04-02T08:15:57.328Z,769.00
2023-04-02T08:16:57.379Z,798.00
2023-04-02T08:17:57.274Z,767.00
2023-04-02T08:23:33.858Z,763.00
2023-04-02T08:24:34.850Z,766.00
2023-04-02T08:25:34.819Z,767.00
2023-04-02T08:26:34.701Z,733.00
2023-04-02T08:27:34.603Z,781.00
2023-04-02T08:28:34.521Z,845.00
2023-04-02T08:29:34.466Z,764.00
2023-04-02T08:30:34.476Z,846.00
2023-04-02T08:31:34.359Z,734.00
2023-04-02T08:32:34.295Z,809.00
2023-04-02T08:33:34.183Z,790.00
2023-04-02T08:34:34.169Z,721.00
2023-04-02T08:35:34.764Z,825.00
2023-04-02T08:36:34.023Z,767.00
2023-04-02T08:37:33.964Z,787.00
2023-04-02T08:40:52.246Z,917.00
2023-04-02T08:41:53.188Z,910.00
2023-04-02T08:42:53.132Z,924.00
2023-04-02T08:43:53.084Z,911.00
2023-04-02T08:44:52.975Z,903.00
2023-04-02T08:45:53.258Z,947.00
2023-04-02T08:46:52.870Z,896.00
2023-04-02T08:47:52.832Z,1025.00
2023-04-02T08:48:52.746Z,939.00
2023-04-02T08:49:52.677Z,1093.00
2023-04-02T08:50:52.612Z,1064.00
2023-04-02T08:51:52.593Z,1119.00
2023-04-02T08:52:52.485Z,1231.00
2023-04-02T08:53:52.420Z,1108.00
2023-04-02T08:54:52.350Z,1127.00
2023-04-02T08:55:52.317Z,1115.00
2023-04-02T08:56:52.261Z,1091.00
2023-04-02T08:57:52.190Z,979.00
2023-04-02T08:58:52.137Z,930.00
2023-04-02T08:59:52.032Z,947.00
2023-04-02T09:00:52.005Z,980.00
2023-04-02T09:01:51.952Z,827.00
2023-04-02T09:02:51.906Z,844.00
2023-04-02T09:03:51.796Z,953.00
2023-04-02T09:04:51.769Z,916.00
2023-04-02T09:05:51.697Z,852.00
2023-04-02T09:06:51.616Z,750.00
2023-04-02T09:07:51.526Z,739.00
2023-04-02T09:08:51.488Z,760.00
2023-04-02T09:09:51.414Z,772.00
2023-04-02T09:10:51.301Z,835.00
2023-04-02T09:11:51.241Z,913.00
2023-04-02T09:12:51.215Z,888.00
2023-04-02T09:13:51.137Z,806.00
2023-04-02T09:14:51.099Z,885.00
2023-04-02T09:15:55.050Z,835.00
2023-04-02T09:16:50.944Z,856.00
2023-04-02T09:17:54.416Z,895.00
2023-04-02T09:18:50.798Z,867.00
2023-04-02T09:19:50.782Z,820.00
2023-04-02T09:20:50.708Z,810.00
2023-04-02T09:21:50.637Z,812.00
2023-04-02T09:22:50.561Z,798.00
2023-04-02T09:23:50.504Z,800.00
2023-04-02T09:24:50.465Z,906.00
2023-04-02T09:26:02.976Z,905.00
2023-04-02T09:26:50.346Z,868.00
2023-04-02T09:27:50.789Z,784.00
2023-04-02T09:28:50.185Z,803.00
2023-04-02T09:29:50.127Z,804.00
2023-04-02T09:30:50.050Z,772.00
2023-04-02T09:31:50.000Z,819.00
2023-04-02T09:32:49.961Z,873.00
2023-04-02T09:33:51.089Z,844.00
2023-04-02T09:34:49.773Z,855.00
2023-04-02T09:35:49.754Z,947.00
2023-04-02T09:36:49.669Z,966.00
2023-04-02T09:37:49.588Z,897.00
2023-04-02T09:38:49.569Z,910.00
2023-04-02T09:39:49.502Z,1069.00
2023-04-02T09:40:49.411Z,1084.00
2023-04-02T09:41:59.139Z,1086.00
2023-04-02T09:42:49.299Z,1065.00
2023-04-02T09:43:49.239Z,1098.00
2023-04-02T09:44:49.140Z,1129.00
2023-04-02T09:45:49.160Z,1098.00
2023-04-02T09:46:49.079Z,1143.00
2023-04-02T09:47:49.005Z,1096.00
2023-04-02T09:48:48.888Z,1053.00
2023-04-02T09:49:49.354Z,1418.00
2023-04-02T09:50:48.811Z,1318.00
2023-04-02T09:54:07.064Z,2124.00
2023-04-02T09:55:07.989Z,2182.00
2023-04-02T09:56:07.901Z,2088.00
2023-04-02T09:57:07.911Z,1977.00
2023-04-02T09:58:07.799Z,2061.00
2023-04-02T09:59:07.736Z,1944.00
2023-04-02T10:00:10.315Z,1728.00
2023-04-02T10:01:07.643Z,1769.00
2023-04-02T10:02:07.541Z,1722.00
2023-04-02T10:03:07.556Z,2017.00
2023-04-02T10:04:07.440Z,1995.00
2023-04-02T10:05:07.382Z,2225.00
2023-04-02T10:06:07.284Z,2635.00
2023-04-02T10:07:07.221Z,2469.00
2023-04-02T10:08:07.154Z,2285.00
2023-04-02T10:09:07.073Z,2155.00
2023-04-02T10:10:07.030Z,2452.00
2023-04-02T10:11:06.972Z,2705.00
2023-04-02T10:12:06.929Z,2497.00
2023-04-02T10:13:06.809Z,2225.00
2023-04-02T10:14:06.769Z,2450.00
2023-04-02T10:15:06.710Z,2775.00
2023-04-02T10:16:06.695Z,2344.00
2023-04-02T10:17:06.652Z,2634.00
2023-04-02T10:18:06.573Z,2365.00
2023-04-02T10:19:06.512Z,2182.00
2023-04-02T10:20:06.459Z,2085.00
2023-04-02T10:21:06.348Z,2633.00
2023-04-02T10:22:06.255Z,3245.00
2023-04-02T10:23:06.588Z,3422.00
2023-04-02T10:24:06.113Z,4162.00
2023-04-02T10:25:06.097Z,4151.00
2023-04-02T10:26:06.040Z,4088.00
2023-04-02T10:27:05.965Z,3686.00
2023-04-02T10:28:05.895Z,3765.00
2023-04-02T10:31:24.261Z,4003.00
2023-04-02T10:32:25.133Z,3719.00
2023-04-02T10:33:25.084Z,4029.00
2023-04-02T10:34:25.038Z,4898.00
2023-04-02T10:35:25.054Z,3671.00
2023-04-02T10:36:24.936Z,2914.00
2023-04-02T10:37:24.837Z,2609.00
2023-04-02T10:38:24.798Z,2689.00
2023-04-02T10:39:24.732Z,2520.00
2023-04-02T10:40:24.632Z,2354.00
2023-04-02T10:41:24.584Z,2195.00
2023-04-02T10:42:24.570Z,2210.00
2023-04-02T10:43:24.487Z,2176.00
2023-04-02T10:44:24.362Z,2082.00
2023-04-02T10:45:24.327Z,1935.00
2023-04-02T10:46:25.579Z,1703.00
2023-04-02T10:47:24.174Z,1633.00
2023-04-02T10:48:25.360Z,1527.00
2023-04-02T10:49:24.138Z,1637.00
2023-04-02T10:50:23.979Z,1778.00
2023-04-02T10:51:23.952Z,1570.00
2023-04-02T10:52:23.856Z,1461.00
2023-04-02T10:53:23.889Z,1410.00
2023-04-02T10:54:23.802Z,1515.00
2023-04-02T10:55:23.723Z,1573.00
2023-04-02T10:56:23.631Z,1504.00
2023-04-02T10:57:23.630Z,1575.00
2023-04-02T10:58:23.486Z,1656.00
2023-04-02T10:59:23.420Z,1833.00
2023-04-02T11:00:23.391Z,1957.00
2023-04-02T11:01:23.339Z,2069.00
2023-04-02T11:02:23.301Z,2205.00
2023-04-02T11:03:23.272Z,1928.00
2023-04-02T11:04:23.143Z,1544.00
2023-04-02T11:05:23.050Z,1486.00
2023-04-02T11:06:23.011Z,1480.00
2023-04-02T11:07:22.933Z,1384.00
2023-04-02T11:08:22.861Z,1306.00
2023-04-02T11:09:22.832Z,1248.00
2023-04-02T11:10:22.733Z,1314.00
2023-04-02T11:11:22.719Z,1479.00
2023-04-02T11:12:22.623Z,1545.00
2023-04-02T11:13:22.645Z,1464.00
2023-04-02T11:14:22.477Z,1410.00
2023-04-02T11:15:22.400Z,1458.00
2023-04-02T11:16:22.405Z,1512.00
2023-04-02T11:17:22.384Z,1626.00
2023-04-02T11:18:22.262Z,1612.00
2023-04-02T11:19:22.188Z,1488.00
2023-04-02T11:20:22.132Z,1437.00
2023-04-02T11:21:22.009Z,1598.00
2023-04-02T11:22:21.967Z,1702.00
2023-04-02T11:23:21.908Z,1757.00
2023-04-02T11:26:40.203Z,1578.00
2023-04-02T11:27:41.144Z,1507.00
2023-04-02T11:28:41.069Z,1623.00
2023-04-02T11:29:40.984Z,1694.00
2023-04-02T11:30:40.950Z,1822.00
2023-04-02T11:31:40.957Z,1846.00
2023-04-02T11:32:40.863Z,1834.00
2023-04-02T11:33:44.741Z,1800.00
2023-04-02T11:34:40.722Z,1791.00
2023-04-02T11:35:40.944Z,1776.00
2023-04-02T11:36:40.562Z,1736.00
2023-04-02T11:37:40.529Z,1754.00
2023-04-02T11:38:40.426Z,1779.00
2023-04-02T11:39:40.418Z,1797.00
2023-04-02T11:40:40.274Z,2014.00
2023-04-02T11:41:40.243Z,2243.00
2023-04-02T11:42:40.226Z,2230.00
2023-04-02T11:43:40.125Z,2284.00
2023-04-02T11:44:40.064Z,1986.00
2023-04-02T11:45:51.953Z,1765.00
2023-04-02T11:46:39.966Z,1607.00
2023-04-02T11:47:39.893Z,1659.00
2023-04-02T11:48:39.783Z,1865.00
2023-04-02T11:49:39.928Z,2064.00
2023-04-02T11:50:39.668Z,2546.00
2023-04-02T11:51:39.606Z,2682.00
2023-04-02T11:52:39.543Z,3074.00
2023-04-02T11:53:39.482Z,3028.00
2023-04-02T11:54:39.422Z,3188.00
2023-04-02T11:55:39.659Z,3236.00
2023-04-02T11:56:39.304Z,3206.00
2023-04-02T11:57:39.377Z,2955.00
2023-04-02T11:58:39.194Z,2807.00
2023-04-02T11:59:39.098Z,2647.00
2023-04-02T12:00:39.042Z,2433.00
2023-04-02T12:03:57.351Z,2678.00
2023-04-02T12:04:58.308Z,2596.00
2023-04-02T12:05:58.226Z,2823.00
2023-04-02T12:06:58.148Z,2627.00
2023-04-02T12:07:58.114Z,2973.00
2023-04-02T12:08:58.445Z,2484.00
2023-04-02T12:09:57.936Z,2735.00
2023-04-02T12:10:57.895Z,2596.00
2023-04-02T12:11:57.837Z,3496.00
2023-04-02T12:12:57.743Z,1093.00
2023-04-02T12:13:57.674Z,6287.00
2023-04-02T12:14:57.665Z,2784.00
2023-04-02T12:15:57.552Z,2742.00
2023-04-02T12:16:57.560Z,2756.00
2023-04-02T12:17:57.429Z,2759.00
2023-04-02T12:18:57.364Z,2581.00
2023-04-02T12:19:57.266Z,2742.00
2023-04-02T12:25:33.977Z,2497.00
2023-04-02T12:26:34.905Z,2413.00
2023-04-02T12:27:34.878Z,2524.00
2023-04-02T12:28:34.802Z,2608.00
2023-04-02T12:29:34.709Z,2779.00
2023-04-02T12:30:34.936Z,2971.00
2023-04-02T12:31:34.582Z,2879.00
2023-04-02T12:32:34.580Z,2988.00
2023-04-02T12:33:34.484Z,2610.00
2023-04-02T12:34:34.399Z,2624.00
2023-04-02T12:35:34.415Z,2659.00
2023-04-02T12:36:34.341Z,2445.00
2023-04-02T12:37:34.204Z,2130.00
2023-04-02T12:38:34.172Z,2482.00
2023-04-02T12:39:34.090Z,2925.00
2023-04-02T12:40:34.332Z,1950.00
2023-04-02T12:41:33.982Z,5185.00
2023-04-02T12:42:54.888Z,3562.00
2023-04-02T12:43:33.842Z,3381.00
2023-04-02T12:44:33.745Z,2960.00
2023-04-02T12:45:33.749Z,3401.00
2023-04-02T12:46:33.691Z,3115.00
2023-04-02T12:47:33.574Z,2716.00
2023-04-02T12:48:33.495Z,2664.00
2023-04-02T12:49:33.481Z,2573.00
2023-04-02T12:50:33.606Z,2452.00
2023-04-02T12:51:33.323Z,2398.00
2023-04-02T12:52:33.258Z,2475.00
2023-04-02T12:53:33.210Z,2878.00
2023-04-02T12:54:33.176Z,2679.00
2023-04-02T12:55:33.072Z,2597.00
2023-04-02T12:56:33.009Z,2352.00
2023-04-02T12:57:32.983Z,2299.00
2023-04-02T12:58:32.884Z,2215.00
2023-04-02T12:59:32.797Z,2416.00
2023-04-02T13:02:51.197Z,2580.00
2023-04-02T13:03:52.079Z,2689.00
2023-04-02T13:04:51.949Z,2603.00
2023-04-02T13:05:51.918Z,2310.00
2023-04-02T13:06:51.830Z,2213.00
2023-04-02T13:07:51.819Z,2121.00
2023-04-02T13:08:51.734Z,2089.00
2023-04-02T13:09:51.642Z,2153.00
2023-04-02T13:10:51.613Z,2323.00
2023-04-02T13:11:51.538Z,2450.00
2023-04-02T13:12:51.473Z,2212.00
2023-04-02T13:13:51.421Z,2320.00
2023-04-02T13:14:51.376Z,2208.00
2023-04-02T13:15:51.304Z,2237.00
2023-04-02T13:16:51.280Z,2129.00
2023-04-02T13:17:51.218Z,2080.00
2023-04-02T13:18:51.144Z,2089.00
2023-04-02T13:19:51.075Z,2202.00
2023-04-02T13:20:51.000Z,2303.00
2023-04-02T13:21:50.905Z,2280.00
2023-04-02T13:22:50.817Z,2168.00